createdAt,value
2023-01-26T00:01:53.870Z,17.52
2023-01-26T00:04:39.182Z,17.77
2023-01-26T00:07:24.817Z,18.25
2023-01-26T00:10:10.825Z,19.02
2023-01-26T00:12:56.458Z,19.80
2023-01-26T00:15:42.442Z,19.98
2023-01-26T00:18:28.303Z,20.58
2023-01-26T00:21:16.387Z,20.95
2023-01-26T00:24:02.203Z,20.58
2023-01-26T00:26:47.645Z,20.58
2023-01-26T00:29:33.148Z,22.75
2023-01-26T00:32:18.597Z,21.98
2023-01-26T00:35:05.307Z,22.17
2023-01-26T00:37:50.422Z,22.05
2023-01-26T00:40:35.756Z,21.58
2023-01-26T00:43:21.410Z,21.73
2023-01-26T00:46:06.829Z,21.10
2023-01-26T00:48:53.927Z,20.88
2023-01-26T00:51:39.169Z,22.20
2023-01-26T00:54:24.572Z,22.02
2023-01-26T00:57:10.070Z,21.95
2023-01-26T00:59:55.488Z,21.02
2023-01-26T01:02:43.998Z,21.75
2023-01-26T01:05:31.097Z,22.35
2023-01-26T01:08:16.426Z,21.08
2023-01-26T01:11:07.556Z,21.17
2023-01-26T01:13:52.999Z,20.95
2023-01-26T01:16:38.428Z,22.05
2023-01-26T01:19:24.221Z,21.90
2023-01-26T01:22:09.607Z,21.88
2023-01-26T01:24:55.062Z,20.50
2023-01-26T01:27:40.561Z,20.45
2023-01-26T01:30:25.926Z,20.65
2023-01-26T01:33:11.355Z,19.98
2023-01-26T01:36:02.395Z,21.00
2023-01-26T01:38:49.418Z,20.50
2023-01-26T01:41:34.571Z,19.92
2023-01-26T01:44:22.857Z,19.85
2023-01-26T01:47:26.777Z,18.73
2023-01-26T01:50:17.965Z,19.60
2023-01-26T01:53:03.937Z,22.10
2023-01-26T01:55:49.133Z,21.75
2023-01-26T01:58:37.562Z,20.70
2023-01-26T02:01:23.416Z,21.38
2023-01-26T02:04:09.119Z,21.17
2023-01-26T02:06:58.993Z,21.80
2023-01-26T02:10:03.839Z,21.40
2023-01-26T02:12:54.054Z,21.10
2023-01-26T02:15:39.456Z,21.23
2023-01-26T02:18:25.128Z,19.88
2023-01-26T02:21:13.046Z,19.95
2023-01-26T02:24:12.710Z,19.75
2023-01-26T02:26:58.129Z,19.60
2023-01-26T02:29:43.484Z,19.27
2023-01-26T02:32:28.823Z,19.60
2023-01-26T02:35:14.161Z,18.67
2023-01-26T02:37:59.608Z,17.50
2023-01-26T02:40:54.294Z,17.98
2023-01-26T02:43:40.259Z,16.83
2023-01-26T02:46:25.671Z,17.83
2023-01-26T02:49:29.547Z,17.15
2023-01-26T02:52:16.497Z,16.73
2023-01-26T02:55:23.119Z,15.85
2023-01-26T02:58:08.644Z,15.77
2023-01-26T03:00:55.351Z,15.18
2023-01-26T03:03:44.922Z,14.90
2023-01-26T03:06:30.168Z,15.30
2023-01-26T03:09:16.187Z,15.63
2023-01-26T03:12:01.687Z,15.23
2023-01-26T03:15:07.168Z,15.85
2023-01-26T03:18:12.729Z,15.93
2023-01-26T03:21:25.321Z,15.85
2023-01-26T03:24:31.222Z,15.55
2023-01-26T03:27:26.962Z,17.15
2023-01-26T03:30:15.640Z,16.25
2023-01-26T03:33:03.065Z,16.30
2023-01-26T03:35:53.596Z,16.08
2023-01-26T03:38:40.556Z,15.18
2023-01-26T03:41:44.544Z,14.90
2023-01-26T03:44:48.369Z,15.00
2023-01-26T03:47:53.245Z,14.13
2023-01-26T03:50:57.080Z,13.25
2023-01-26T03:54:02.004Z,13.82
2023-01-26T03:56:47.409Z,13.82
2023-01-26T03:59:39.717Z,14.07
2023-01-26T04:02:49.331Z,14.32
2023-01-26T04:05:54.045Z,15.15
2023-01-26T04:08:39.402Z,15.48
2023-01-26T04:11:24.972Z,16.25
2023-01-26T04:14:34.461Z,15.55
2023-01-26T04:17:54.004Z,14.25
2023-01-26T04:20:58.785Z,14.02
2023-01-26T04:23:44.624Z,13.18
2023-01-26T04:26:36.862Z,15.15
2023-01-26T04:29:25.718Z,13.63
2023-01-26T04:32:11.097Z,12.90
2023-01-26T04:34:56.940Z,14.82
2023-01-26T04:37:44.503Z,15.30
2023-01-26T04:40:29.855Z,16.40
2023-01-26T04:43:15.294Z,16.08
2023-01-26T04:46:03.470Z,17.08
2023-01-26T04:48:49.403Z,16.38
2023-01-26T04:51:35.927Z,15.70
2023-01-26T04:54:21.686Z,14.35
2023-01-26T04:57:07.867Z,14.85
2023-01-26T04:59:54.495Z,14.23
2023-01-26T05:02:40.485Z,14.23
2023-01-26T05:05:26.998Z,14.20
2023-01-26T05:08:12.468Z,13.30
2023-01-26T05:10:58.594Z,13.65
2023-01-26T05:13:59.424Z,13.45
2023-01-26T05:16:54.863Z,13.52
2023-01-26T05:19:44.758Z,14.98
2023-01-26T05:22:53.845Z,12.60
2023-01-26T05:25:51.229Z,12.65
2023-01-26T05:28:36.607Z,12.63
2023-01-26T05:31:22.743Z,13.05
2023-01-26T05:34:08.456Z,11.63
2023-01-26T05:36:55.463Z,12.20
2023-01-26T05:39:41.337Z,12.10
2023-01-26T05:42:26.887Z,11.68
2023-01-26T05:45:18.994Z,11.50
2023-01-26T05:48:04.817Z,10.02
2023-01-26T05:50:50.710Z,9.55
2023-01-26T05:53:38.517Z,9.07
2023-01-26T05:56:23.996Z,9.65
2023-01-26T05:59:14.137Z,9.63
2023-01-26T06:02:01.298Z,8.43
2023-01-26T06:04:46.593Z,7.50
2023-01-26T06:07:33.198Z,7.85
2023-01-26T06:10:35.900Z,7.05
2023-01-26T06:13:36.924Z,7.10
2023-01-26T06:16:39.783Z,6.20
2023-01-26T06:19:26.492Z,5.95
2023-01-26T06:22:16.449Z,5.45
2023-01-26T06:25:05.675Z,4.97
2023-01-26T06:27:51.894Z,4.47
2023-01-26T06:30:44.924Z,4.55
2023-01-26T06:33:36.007Z,3.92
2023-01-26T06:36:22.081Z,3.83
2023-01-26T06:39:10.445Z,3.38
2023-01-26T06:41:55.776Z,3.40
2023-01-26T06:44:41.088Z,3.50
2023-01-26T06:47:26.527Z,3.15
2023-01-26T06:50:12.310Z,4.05
2023-01-26T06:53:00.465Z,3.83
2023-01-26T06:56:10.215Z,3.40
2023-01-26T06:59:13.038Z,3.70
2023-01-26T07:02:19.128Z,3.40
2023-01-26T07:05:04.875Z,3.67
2023-01-26T07:07:49.859Z,3.20
2023-01-26T07:10:36.549Z,3.38
2023-01-26T07:13:21.567Z,4.47
2023-01-26T07:16:09.409Z,3.70
2023-01-26T07:18:55.708Z,2.88
2023-01-26T07:21:41.158Z,2.55
2023-01-26T07:24:27.071Z,3.35
2023-01-26T07:27:12.586Z,4.00
2023-01-26T07:29:58.003Z,4.15
2023-01-26T07:32:43.259Z,3.22
2023-01-26T07:35:29.872Z,3.25
2023-01-26T07:38:15.213Z,3.22
2023-01-26T07:41:05.401Z,3.08
2023-01-26T07:43:51.676Z,5.53
2023-01-26T07:46:37.526Z,3.63
2023-01-26T07:49:23.067Z,3.25
2023-01-26T07:52:09.149Z,3.00
2023-01-26T07:54:54.422Z,3.60
2023-01-26T07:57:39.979Z,3.80
2023-01-26T08:00:25.260Z,3.80
2023-01-26T08:03:10.803Z,3.67
2023-01-26T08:05:56.447Z,3.13
2023-01-26T08:08:42.099Z,4.25
2023-01-26T08:11:27.476Z,4.10
2023-01-26T08:14:13.018Z,4.35
2023-01-26T08:16:58.621Z,3.65
2023-01-26T08:19:44.764Z,3.28
2023-01-26T08:22:30.429Z,3.47
2023-01-26T08:25:15.723Z,3.65
2023-01-26T08:28:01.202Z,3.20
2023-01-26T08:30:46.662Z,3.78
2023-01-26T08:33:32.901Z,3.85
2023-01-26T08:36:22.101Z,3.47
2023-01-26T08:39:08.211Z,4.32
2023-01-26T08:41:53.255Z,4.05
2023-01-26T08:44:38.552Z,3.13
2023-01-26T08:47:23.925Z,3.10
2023-01-26T08:50:10.678Z,4.55
2023-01-26T08:52:56.853Z,3.60
2023-01-26T08:55:42.308Z,4.25
2023-01-26T08:58:28.838Z,3.55
2023-01-26T09:01:16.449Z,3.55
2023-01-26T09:04:02.983Z,3.42
2023-01-26T09:06:48.059Z,3.67
2023-01-26T09:09:33.573Z,3.42
2023-01-26T09:12:18.909Z,3.97
2023-01-26T09:15:04.966Z,4.40
2023-01-26T09:17:50.524Z,4.25
2023-01-26T09:20:37.347Z,3.25
2023-01-26T09:23:22.445Z,4.15
2023-01-26T09:26:07.676Z,3.60
2023-01-26T09:28:53.253Z,4.38
2023-01-26T09:31:38.316Z,3.85
2023-01-26T09:34:25.267Z,3.53
2023-01-26T09:37:10.937Z,3.58
2023-01-26T09:39:56.385Z,3.30
2023-01-26T09:42:47.790Z,3.88
2023-01-26T09:45:42.375Z,3.90
2023-01-26T09:48:44.183Z,3.47
2023-01-26T09:51:37.543Z,4.53
2023-01-26T09:54:35.210Z,3.42
2023-01-26T09:57:32.976Z,3.92
2023-01-26T10:00:22.866Z,3.78
2023-01-26T10:03:31.266Z,4.78
2023-01-26T10:06:22.892Z,3.03
2023-01-26T10:09:29.705Z,2.97
2023-01-26T10:12:30.893Z,3.08
2023-01-26T10:15:38.984Z,3.55
2023-01-26T10:18:40.950Z,3.35
2023-01-26T10:21:33.383Z,2.92
2023-01-26T10:24:23.555Z,2.55
2023-01-26T10:27:14.057Z,2.92
2023-01-26T10:29:59.425Z,3.25
2023-01-26T10:32:47.243Z,3.67
2023-01-26T10:35:34.252Z,3.20
2023-01-26T10:38:37.921Z,2.58
2023-01-26T10:41:26.059Z,2.55
2023-01-26T10:44:34.863Z,2.63
2023-01-26T10:47:22.024Z,2.58
2023-01-26T10:50:34.069Z,2.80
2023-01-26T10:53:25.323Z,2.63
2023-01-26T10:56:17.165Z,2.80
2023-01-26T10:59:03.152Z,3.20
2023-01-26T11:02:00.810Z,3.00
2023-01-26T11:05:09.757Z,3.67
2023-01-26T11:08:02.376Z,3.35
2023-01-26T11:10:53.847Z,2.90
2023-01-26T11:13:39.338Z,2.60
2023-01-26T11:16:27.450Z,2.55
2023-01-26T11:19:22.637Z,2.90
2023-01-26T11:22:15.092Z,2.47
2023-01-26T11:25:23.963Z,2.95
2023-01-26T11:28:38.352Z,3.33
2023-01-26T11:31:43.815Z,3.58
2023-01-26T11:35:01.104Z,2.80
2023-01-26T11:37:54.061Z,3.90
2023-01-26T11:41:06.359Z,3.17
2023-01-26T11:44:32.235Z,2.22
2023-01-26T11:47:53.516Z,3.22
2023-01-26T11:50:47.029Z,2.97
2023-01-26T11:54:03.628Z,2.58
2023-01-26T11:56:52.966Z,2.70
2023-01-26T12:00:17.700Z,2.67
2023-01-26T12:03:38.745Z,2.80
2023-01-26T12:06:45.646Z,2.60
2023-01-26T12:09:44.121Z,2.83
2023-01-26T12:12:51.573Z,2.20
2023-01-26T12:15:39.833Z,3.15
2023-01-26T12:19:09.224Z,2.50
2023-01-26T12:22:06.128Z,2.50
2023-01-26T12:25:20.052Z,2.28
2023-01-26T12:28:29.431Z,2.22
2023-01-26T12:31:21.497Z,2.15
2023-01-26T12:34:12.853Z,1.90
2023-01-26T12:37:43.155Z,2.00
2023-01-26T12:40:44.547Z,2.05
2023-01-26T12:44:00.114Z,2.95
2023-01-26T12:46:52.998Z,1.83
2023-01-26T12:49:48.282Z,2.20
2023-01-26T12:53:05.953Z,2.28
2023-01-26T12:56:00.995Z,2.08
2023-01-26T12:58:48.464Z,2.25
2023-01-26T13:01:40.850Z,2.10
2023-01-26T13:07:31.254Z,1.75
2023-01-26T13:10:17.969Z,1.75
2023-01-26T13:13:32.086Z,1.65
2023-01-26T13:18:55.781Z,1.70
2023-01-26T13:21:44.228Z,1.88
2023-01-26T13:24:29.861Z,1.98
2023-01-26T13:27:37.213Z,1.30
2023-01-26T13:30:28.669Z,1.85
2023-01-26T13:33:22.947Z,1.85
2023-01-26T13:36:16.997Z,1.65
2023-01-26T13:39:25.117Z,1.50
2023-01-26T13:42:23.487Z,1.60
2023-01-26T13:45:23.553Z,1.25
2023-01-26T13:48:20.745Z,1.42
2023-01-26T13:51:09.180Z,1.40
2023-01-26T13:53:57.143Z,1.20
2023-01-26T13:56:58.761Z,1.35
2023-01-26T14:00:01.820Z,1.52
2023-01-26T14:02:51.940Z,1.70
2023-01-26T14:05:37.635Z,1.30
2023-01-26T14:08:23.623Z,1.30
2023-01-26T14:11:19.007Z,1.38
2023-01-26T14:14:04.424Z,1.00
2023-01-26T14:16:50.125Z,1.48
2023-01-26T14:19:41.123Z,1.83
2023-01-26T14:22:27.650Z,1.83
2023-01-26T14:25:13.330Z,1.73
2023-01-26T14:27:58.879Z,1.90
2023-01-26T14:30:50.611Z,1.70
2023-01-26T14:33:37.221Z,1.25
2023-01-26T14:36:23.632Z,1.83
2023-01-26T14:39:17.196Z,1.63
2023-01-26T14:42:03.627Z,1.85
2023-01-26T14:44:49.582Z,1.70
2023-01-26T14:47:35.454Z,1.58
2023-01-26T14:50:29.889Z,1.60
2023-01-26T14:53:19.346Z,1.50
2023-01-26T14:56:05.251Z,1.50
2023-01-26T14:58:52.989Z,1.20
2023-01-26T15:01:38.469Z,1.25
2023-01-26T15:04:36.374Z,1.25
2023-01-26T15:07:43.293Z,1.40
2023-01-26T15:10:34.412Z,1.50
2023-01-26T15:13:23.329Z,1.73
2023-01-26T15:16:19.634Z,1.10
2023-01-26T15:19:07.804Z,0.98
2023-01-26T15:21:53.476Z,1.27
2023-01-26T15:24:38.983Z,1.15
2023-01-26T15:27:24.443Z,1.20
2023-01-26T15:30:17.116Z,1.33
2023-01-26T15:35:58.176Z,1.42
2023-01-26T15:38:43.444Z,1.00
2023-01-26T15:41:29.360Z,1.38
2023-01-26T15:44:20.258Z,1.60
2023-01-26T15:47:05.385Z,1.33
2023-01-26T15:49:50.858Z,1.60
2023-01-26T15:52:36.343Z,1.38
2023-01-26T15:55:26.291Z,1.75
2023-01-26T15:58:11.647Z,1.40
2023-01-26T16:00:58.067Z,1.55
2023-01-26T16:03:43.573Z,1.73
2023-01-26T16:06:31.590Z,1.65
2023-01-26T16:09:17.188Z,1.70
2023-01-26T16:12:02.640Z,1.48
2023-01-26T16:14:48.073Z,1.75
2023-01-26T16:17:33.394Z,1.90
2023-01-26T16:20:19.041Z,2.20
2023-01-26T16:23:15.140Z,2.28
2023-01-26T16:26:00.271Z,1.73
2023-01-26T16:28:46.715Z,2.08
2023-01-26T16:31:34.572Z,1.80
2023-01-26T16:34:19.788Z,2.50
2023-01-26T16:37:05.268Z,2.40
2023-01-26T16:39:50.709Z,1.88
2023-01-26T16:42:40.022Z,2.40
2023-01-26T16:45:29.408Z,1.92
2023-01-26T16:48:16.211Z,1.73
2023-01-26T16:51:11.461Z,2.15
2023-01-26T16:53:57.547Z,1.80
2023-01-26T16:56:43.032Z,1.73
2023-01-26T16:59:28.376Z,1.95
2023-01-26T17:02:24.851Z,1.60
2023-01-26T17:05:18.794Z,1.90
2023-01-26T17:08:04.085Z,2.35
2023-01-26T17:11:01.636Z,2.10
2023-01-26T17:13:47.914Z,2.35
2023-01-26T17:16:33.628Z,2.42
2023-01-26T17:19:18.673Z,1.80
2023-01-26T17:22:04.226Z,2.03
2023-01-26T17:24:49.747Z,2.50
2023-01-26T17:27:35.582Z,2.20
2023-01-26T17:30:21.199Z,2.22
2023-01-26T17:33:06.670Z,2.10
2023-01-26T17:36:00.231Z,2.35
2023-01-26T17:38:46.569Z,2.15
2023-01-26T17:41:31.827Z,2.30
2023-01-26T17:44:17.313Z,2.13
2023-01-26T17:47:02.875Z,2.45
2023-01-26T17:49:48.578Z,2.20
2023-01-26T17:52:36.321Z,2.28
2023-01-26T17:55:21.584Z,2.53
2023-01-26T17:58:10.701Z,3.47
2023-01-26T18:00:55.907Z,2.22
2023-01-26T18:03:42.789Z,2.10
2023-01-26T18:06:29.700Z,2.20
2023-01-26T18:09:15.053Z,1.77
2023-01-26T18:12:00.772Z,1.98
2023-01-26T18:14:48.282Z,2.80
2023-01-26T18:17:33.729Z,1.85
2023-01-26T18:20:19.204Z,2.72
2023-01-26T18:23:04.599Z,2.38
2023-01-26T18:25:50.326Z,2.30
2023-01-26T18:28:35.374Z,2.00
2023-01-26T18:31:22.590Z,2.17
2023-01-26T18:34:08.406Z,2.20
2023-01-26T18:36:53.488Z,2.28
2023-01-26T18:39:39.143Z,1.73
2023-01-26T18:42:24.322Z,2.38
2023-01-26T18:45:10.506Z,2.28
2023-01-26T18:47:56.344Z,1.77
2023-01-26T18:50:41.959Z,2.05
2023-01-26T18:53:28.171Z,2.05
2023-01-26T18:56:16.061Z,2.10
2023-01-26T18:59:01.256Z,1.98
2023-01-26T19:01:46.870Z,3.05
2023-01-26T19:04:32.457Z,2.50
2023-01-26T19:07:18.629Z,2.10
2023-01-26T19:10:05.954Z,2.05
2023-01-26T19:12:51.170Z,2.53
2023-01-26T19:15:36.537Z,1.77
2023-01-26T19:18:22.197Z,2.80
2023-01-26T19:21:07.742Z,2.20
2023-01-26T19:23:54.862Z,2.05
2023-01-26T19:26:40.246Z,3.13
2023-01-26T19:29:26.049Z,2.10
2023-01-26T19:32:11.597Z,2.30
2023-01-26T19:34:56.967Z,2.33
2023-01-26T19:37:42.412Z,2.25
2023-01-26T19:40:27.804Z,2.50
2023-01-26T19:43:14.583Z,3.08
2023-01-26T19:46:00.195Z,2.40
2023-01-26T19:48:46.252Z,2.00
2023-01-26T19:51:33.170Z,2.45
2023-01-26T19:54:18.590Z,2.72
2023-01-26T19:57:04.097Z,2.00
2023-01-26T19:59:50.287Z,3.03
2023-01-26T20:02:35.788Z,2.15
2023-01-26T20:05:21.067Z,2.80
2023-01-26T20:08:06.483Z,2.40
2023-01-26T20:10:52.035Z,2.83
2023-01-26T20:13:37.745Z,2.60
2023-01-26T20:16:24.036Z,2.88
2023-01-26T20:19:11.528Z,2.42
2023-01-26T20:21:57.064Z,2.60
2023-01-26T20:24:42.856Z,2.67
2023-01-26T20:27:30.128Z,2.85
2023-01-26T20:30:15.642Z,2.45
2023-01-26T20:33:02.116Z,2.35
2023-01-26T20:35:47.539Z,2.60
2023-01-26T20:38:32.990Z,2.63
2023-01-26T20:41:27.554Z,2.72
2023-01-26T20:44:12.644Z,2.33
2023-01-26T20:46:58.672Z,2.90
2023-01-26T20:49:44.104Z,2.70
2023-01-26T20:52:30.493Z,3.15
2023-01-26T20:55:16.175Z,2.85
2023-01-26T20:58:01.484Z,3.00
2023-01-26T21:00:46.847Z,2.70
2023-01-26T21:03:32.953Z,2.97
2023-01-26T21:06:20.324Z,2.47
2023-01-26T21:09:06.061Z,2.60
2023-01-26T21:11:51.259Z,2.67
2023-01-26T21:14:36.854Z,3.75
2023-01-26T21:17:22.918Z,3.17
2023-01-26T21:20:08.984Z,2.88
2023-01-26T21:22:55.134Z,3.10
2023-01-26T21:25:40.562Z,2.85
2023-01-26T21:28:26.447Z,3.00
2023-01-26T21:31:14.572Z,3.00
2023-01-26T21:34:00.678Z,3.08
2023-01-26T21:36:46.104Z,3.28
2023-01-26T21:39:31.757Z,3.38
2023-01-26T21:42:17.200Z,2.83
2023-01-26T21:45:21.105Z,2.15
2023-01-26T21:48:25.740Z,3.30
2023-01-26T21:51:29.363Z,3.13
2023-01-26T21:54:15.996Z,3.40
2023-01-26T21:57:02.788Z,3.10
2023-01-26T21:59:48.059Z,2.92
2023-01-26T22:02:33.571Z,3.13
2023-01-26T22:05:19.138Z,2.83
2023-01-26T22:08:05.232Z,2.72
2023-01-26T22:10:55.977Z,2.80
2023-01-26T22:13:42.681Z,2.50
2023-01-26T22:16:28.727Z,2.63
2023-01-26T22:19:14.064Z,2.97
2023-01-26T22:21:59.580Z,2.70
2023-01-26T22:24:44.937Z,3.28
2023-01-26T22:27:30.546Z,3.08
2023-01-26T22:30:16.138Z,2.85
2023-01-26T22:33:01.824Z,2.72
2023-01-26T22:35:46.955Z,2.85
2023-01-26T22:38:34.688Z,3.35
2023-01-26T22:41:22.434Z,3.63
2023-01-26T22:44:07.731Z,3.22
2023-01-26T22:46:53.099Z,2.90
2023-01-26T22:49:38.547Z,2.55
2023-01-26T22:52:23.955Z,2.85
2023-01-26T22:55:10.192Z,3.20
2023-01-26T22:57:55.313Z,2.55
2023-01-26T23:00:40.837Z,3.25
2023-01-26T23:03:26.184Z,2.17
2023-01-26T23:06:14.550Z,2.70
2023-01-26T23:09:01.024Z,2.45
2023-01-26T23:11:46.270Z,2.38
2023-01-26T23:14:32.564Z,2.80
2023-01-26T23:17:17.657Z,2.05
2023-01-26T23:20:03.147Z,2.67
2023-01-26T23:22:48.561Z,2.42
2023-01-26T23:25:51.924Z,2.10
2023-01-26T23:28:40.337Z,2.25
2023-01-26T23:31:25.385Z,2.53
2023-01-26T23:34:12.318Z,2.00
2023-01-26T23:36:57.859Z,1.75
2023-01-26T23:39:43.236Z,2.25
2023-01-26T23:42:28.650Z,1.88
2023-01-26T23:45:14.076Z,2.60
2023-01-26T23:47:59.725Z,1.92
2023-01-26T23:50:45.612Z,1.92
2023-01-26T23:53:31.389Z,1.83
2023-01-26T23:56:17.852Z,2.38
2023-01-26T23:59:03.227Z,2.30
